Flight Track Log - Related Links

Times and Time Zones

All times are in EDT time to prevent confusion due to time zone crossing. See the LXJ342 flight status page for this flight to view local times or setup timezone preferences in your user account.

Time Position Orientation Groundspeed Altitude Reporting Facility
EDT Latitude Longitude Course Direction KTS MPH feet Rate Location/Type
Tue 01:30:55 PM 36.0650 -115.1772 208° Southwest 187 215 3,100  Level Los Angeles Center
Tue 01:32:14 PM 35.9933 -115.2247 208° Southwest 231 266 6,900 2,866 Climbing Los Angeles Center
Tue 01:33:09 PM 35.9303 -115.2428 193° South 262 302 9,500 2,667 Climbing Los Angeles Center
Tue 01:34:20 PM 35.8475 -115.2578 188° South 268 308 12,500 2,707 Climbing Los Angeles Center
Tue 01:35:22 PM 35.7586 -115.2767 190° South 306 352 15,500 2,855 Climbing Los Angeles Center
Tue 01:36:24 PM 35.6681 -115.3089 196° South 332 382 18,400 2,177 Climbing Los Angeles Center
Tue 01:37:26 PM 35.5806 -115.4253 227° Southwest 378 435 20,000 774 Climbing Los Angeles Center
Tue 01:38:28 PM 35.5192 -115.5069 227° Southwest 395 455 20,000  Level Los Angeles Center
Tue 01:39:31 PM 35.4253 -115.6342 228° Southwest 405 466 20,000  Level Los Angeles Center
Tue 01:40:33 PM 35.3492 -115.7333 227° Southwest 401 461 20,000  Level Los Angeles Center
Tue 01:41:35 PM 35.2742 -115.8342 228° Southwest 401 461 20,000  Level Los Angeles Center
Tue 01:42:37 PM 35.1992 -115.9333 227° Southwest 397 457 20,000  Level Los Angeles Center
Tue 01:43:39 PM 35.1133 -116.0472 227° Southwest 390 449 20,000  Level Los Angeles Center
Tue 01:44:41 PM 35.0522 -116.1253 226° Southwest 388 447 20,000  Level Los Angeles Center
Tue 01:45:43 PM 34.9644 -116.2417 227° Southwest 388 447 20,000  Level Los Angeles Center
Tue 01:46:45 PM 34.8917 -116.3375 227° Southwest 387 445 20,000  Level Los Angeles Center
Tue 01:47:48 PM 34.8372 -116.4492 239° Southwest 402 463 20,000  Level Los Angeles Center
Tue 01:48:50 PM 34.8231 -116.5781 262° West 390 449 20,000  Level Los Angeles Center
Tue 01:49:52 PM 34.8053 -116.7072 261° West 388 447 20,000  Level Los Angeles Center
Tue 01:51:06 PM 34.7897 -116.8358 262° West 386 444 20,000  Level Los Angeles Center
Tue 01:52:08 PM 34.7653 -117.0167 261° West 386 444 20,000  Level Los Angeles Center
Tue 01:53:11 PM 34.7481 -117.1425 261° West 383 441 20,000  Level Los Angeles Center
Tue 01:54:13 PM 34.7317 -117.2708 261° West 381 438 20,000  Level Los Angeles Center
Tue 01:55:15 PM 34.7144 -117.4006 261° West 385 443 20,000 -290 Level Los Angeles Center
Tue 01:56:17 PM 34.6989 -117.5242 261° West 370 426 19,400 -1,306 Descending Los Angeles Center
Tue 01:57:19 PM 34.6819 -117.6481 261° West 370 426 17,300 -2,081 Descending Los Angeles Center
Tue 01:58:21 PM 34.6658 -117.7658 261° West 356 410 15,100 -1,809 Descending Los Angeles Center
Tue 01:59:35 PM 34.6481 -117.9078 261° West 357 411 13,200 -1,329 Descending Los Angeles Center
Tue 02:00:50 PM 34.6336 -118.0475 263° West 349 402 11,800 -1,226 Descending Los Angeles Center
Tue 02:01:52 PM 34.6117 -118.1556 256° West 289 333 10,400 -1,210 Descending Los Angeles Center
Tue 02:02:54 PM 34.5922 -118.2436 255° West 273 314 9,300 -1,056 Descending Los Angeles Center
Tue 02:03:57 PM 34.5686 -118.3431 254° West 259 298 8,200 -624 Descending Los Angeles Center
Tue 02:04:59 PM 34.5503 -118.4264 255° West 259 298 8,000 -97 Descending Los Angeles Center
Tue 02:06:01 PM 34.5292 -118.5075 252° West 254 292 8,000 -581 Level Los Angeles Center
Tue 02:07:03 PM 34.4644 -118.5211 190° South 249 287 6,800 -1,016 Descending Los Angeles Center
Tue 02:08:05 PM 34.3872 -118.5094 173° South 230 265 5,900 -900 Descending Los Angeles Center
Tue 02:08:23 PM 34.3667 -118.5000 159° South 224 258 5,600 -1,214 Descending Southern California TRACON
Tue 02:09:29 PM 34.3167 -118.5000 180° South 169 194 4,200 -1,400 Descending Southern California TRACON
Tue 02:10:23 PM 34.2833 -118.5000 180° South 135 155 2,800 -1,474 Descending Southern California TRACON
Tue 02:11:23 PM 34.2333 -118.5000 180° South 129 148 1,400 -1,400 Descending Southern California TRACON
Tue 02:14:00 PM 34.2098 -118.4900 180° South  Level Estimated
Tue 02:21:00 PM 34.2098 -118.4900 180° South  Level Estimated

Login

Don't have an account? Register now (free) for customized features, flight alerts, and more!